sensor_id;sensor_type;location;lat;lon;timestamp;temperature;humidity
15947;DHT22;8072;52.554;7.966;2023-06-14T00:00:53;18.10;99.90
15947;DHT22;8072;52.554;7.966;2023-06-14T00:03:19;18.00;99.90
15947;DHT22;8072;52.554;7.966;2023-06-14T00:05:48;17.90;99.90
15947;DHT22;8072;52.554;7.966;2023-06-14T00:08:14;17.90;99.90
15947;DHT22;8072;52.554;7.966;2023-06-14T00:10:41;17.80;99.90
15947;DHT22;8072;52.554;7.966;2023-06-14T00:13:10;17.80;99.90
15947;DHT22;8072;52.554;7.966;2023-06-14T00:15:37;17.70;99.90
15947;DHT22;8072;52.554;7.966;2023-06-14T00:18:03;17.70;99.90
15947;DHT22;8072;52.554;7.966;2023-06-14T00:20:32;17.70;99.90
15947;DHT22;8072;52.554;7.966;2023-06-14T00:23:01;17.60;99.90
15947;DHT22;8072;52.554;7.966;2023-06-14T00:25:27;17.60;99.90
15947;DHT22;8072;52.554;7.966;2023-06-14T00:27:54;17.50;99.90
15947;DHT22;8072;52.554;7.966;2023-06-14T00:30:20;17.50;99.90
15947;DHT22;8072;52.554;7.966;2023-06-14T00:32:47;17.50;99.90
15947;DHT22;8072;52.554;7.966;2023-06-14T00:35:13;17.40;99.90
15947;DHT22;8072;52.554;7.966;2023-06-14T00:37:40;17.40;99.90
15947;DHT22;8072;52.554;7.966;2023-06-14T00:40:06;17.40;99.90
15947;DHT22;8072;52.554;7.966;2023-06-14T00:42:32;17.50;99.90
15947;DHT22;8072;52.554;7.966;2023-06-14T00:44:59;17.40;99.90
15947;DHT22;8072;52.554;7.966;2023-06-14T00:47:24;17.40;99.90
15947;DHT22;8072;52.554;7.966;2023-06-14T00:49:51;17.40;99.90
15947;DHT22;8072;52.554;7.966;2023-06-14T00:52:17;17.40;99.90
15947;DHT22;8072;52.554;7.966;2023-06-14T00:54:44;17.40;99.90
15947;DHT22;8072;52.554;7.966;2023-06-14T00:57:10;17.40;99.90
15947;DHT22;8072;52.554;7.966;2023-06-14T00:59:48;17.40;99.90
15947;DHT22;8072;52.554;7.966;2023-06-14T01:02:14;17.40;99.90
15947;DHT22;8072;52.554;7.966;2023-06-14T01:04:45;17.40;99.90
15947;DHT22;8072;52.554;7.966;2023-06-14T01:15:31;17.30;99.90
15947;DHT22;8072;52.554;7.966;2023-06-14T01:17:57;17.30;99.90
15947;DHT22;8072;52.554;7.966;2023-06-14T01:20:31;17.30;99.90
15947;DHT22;8072;52.554;7.966;2023-06-14T01:22:58;17.30;99.90
15947;DHT22;8072;52.554;7.966;2023-06-14T01:25:24;17.30;99.90
15947;DHT22;8072;52.554;7.966;2023-06-14T01:30:21;17.20;99.90
15947;DHT22;8072;52.554;7.966;2023-06-14T01:32:49;17.20;99.90
15947;DHT22;8072;52.554;7.966;2023-06-14T01:35:16;17.10;99.90
15947;DHT22;8072;52.554;7.966;2023-06-14T01:37:43;17.10;99.90
15947;DHT22;8072;52.554;7.966;2023-06-14T01:40:10;17.00;99.90
15947;DHT22;8072;52.554;7.966;2023-06-14T01:42:38;17.00;99.90
15947;DHT22;8072;52.554;7.966;2023-06-14T01:45:05;16.90;99.90
15947;DHT22;8072;52.554;7.966;2023-06-14T01:47:31;16.90;99.90
15947;DHT22;8072;52.554;7.966;2023-06-14T01:50:01;16.80;99.90
15947;DHT22;8072;52.554;7.966;2023-06-14T01:52:27;16.70;99.90
15947;DHT22;8072;52.554;7.966;2023-06-14T01:54:52;16.70;99.90
15947;DHT22;8072;52.554;7.966;2023-06-14T01:57:19;16.60;99.90
15947;DHT22;8072;52.554;7.966;2023-06-14T01:59:46;16.50;99.90
15947;DHT22;8072;52.554;7.966;2023-06-14T02:02:14;16.40;99.90
15947;DHT22;8072;52.554;7.966;2023-06-14T02:04:41;16.30;99.90
15947;DHT22;8072;52.554;7.966;2023-06-14T02:07:07;16.20;99.90
15947;DHT22;8072;52.554;7.966;2023-06-14T02:09:34;16.20;99.90
15947;DHT22;8072;52.554;7.966;2023-06-14T02:12:01;16.10;99.90
15947;DHT22;8072;52.554;7.966;2023-06-14T02:14:27;16.10;99.90
15947;DHT22;8072;52.554;7.966;2023-06-14T02:16:53;16.10;99.90
15947;DHT22;8072;52.554;7.966;2023-06-14T02:19:20;16.00;99.90
15947;DHT22;8072;52.554;7.966;2023-06-14T02:21:46;16.00;99.90
15947;DHT22;8072;52.554;7.966;2023-06-14T02:24:12;15.90;99.90
15947;DHT22;8072;52.554;7.966;2023-06-14T02:26:39;15.80;99.90
15947;DHT22;8072;52.554;7.966;2023-06-14T02:29:05;15.80;99.90
15947;DHT22;8072;52.554;7.966;2023-06-14T02:31:32;15.80;99.90
15947;DHT22;8072;52.554;7.966;2023-06-14T02:33:58;15.70;99.90
15947;DHT22;8072;52.554;7.966;2023-06-14T02:36:25;15.70;99.90
15947;DHT22;8072;52.554;7.966;2023-06-14T02:38:51;15.60;99.90
15947;DHT22;8072;52.554;7.966;2023-06-14T02:41:21;15.60;99.90
15947;DHT22;8072;52.554;7.966;2023-06-14T02:43:46;15.50;99.90
15947;DHT22;8072;52.554;7.966;2023-06-14T02:46:12;15.50;99.90
15947;DHT22;8072;52.554;7.966;2023-06-14T02:48:38;15.40;99.90
15947;DHT22;8072;52.554;7.966;2023-06-14T02:51:03;15.30;99.90
15947;DHT22;8072;52.554;7.966;2023-06-14T02:53:29;15.30;99.90
15947;DHT22;8072;52.554;7.966;2023-06-14T02:55:55;15.30;99.90
15947;DHT22;8072;52.554;7.966;2023-06-14T02:58:22;15.30;99.90
15947;DHT22;8072;52.554;7.966;2023-06-14T03:00:50;15.20;99.90
15947;DHT22;8072;52.554;7.966;2023-06-14T03:03:18;15.30;99.90
15947;DHT22;8072;52.554;7.966;2023-06-14T03:05:47;15.30;99.90
15947;DHT22;8072;52.554;7.966;2023-06-14T03:08:16;15.30;99.90
15947;DHT22;8072;52.554;7.966;2023-06-14T03:10:46;15.30;99.90
15947;DHT22;8072;52.554;7.966;2023-06-14T03:13:15;15.30;99.90
15947;DHT22;8072;52.554;7.966;2023-06-14T03:15:44;15.30;99.90
15947;DHT22;8072;52.554;7.966;2023-06-14T03:18:10;15.30;99.90
15947;DHT22;8072;52.554;7.966;2023-06-14T03:20:39;15.30;99.90
15947;DHT22;8072;52.554;7.966;2023-06-14T03:23:06;15.20;99.90
15947;DHT22;8072;52.554;7.966;2023-06-14T03:25:33;15.10;99.90
15947;DHT22;8072;52.554;7.966;2023-06-14T03:28:01;15.10;99.90
15947;DHT22;8072;52.554;7.966;2023-06-14T03:30:27;15.10;99.90
15947;DHT22;8072;52.554;7.966;2023-06-14T03:32:53;15.10;99.90
15947;DHT22;8072;52.554;7.966;2023-06-14T03:35:23;15.00;99.90
15947;DHT22;8072;52.554;7.966;2023-06-14T03:37:49;15.00;99.90
15947;DHT22;8072;52.554;7.966;2023-06-14T03:40:17;15.10;99.90
15947;DHT22;8072;52.554;7.966;2023-06-14T03:42:53;15.00;99.90
15947;DHT22;8072;52.554;7.966;2023-06-14T03:45:19;15.00;99.90
15947;DHT22;8072;52.554;7.966;2023-06-14T03:47:45;15.00;99.90
15947;DHT22;8072;52.554;7.966;2023-06-14T03:50:11;15.00;99.90
15947;DHT22;8072;52.554;7.966;2023-06-14T03:52:36;15.00;99.90
15947;DHT22;8072;52.554;7.966;2023-06-14T03:55:02;15.00;99.90
15947;DHT22;8072;52.554;7.966;2023-06-14T03:57:29;15.00;99.90
15947;DHT22;8072;52.554;7.966;2023-06-14T03:59:55;15.00;99.90
15947;DHT22;8072;52.554;7.966;2023-06-14T04:02:21;15.00;99.90
15947;DHT22;8072;52.554;7.966;2023-06-14T04:04:48;15.00;99.90
15947;DHT22;8072;52.554;7.966;2023-06-14T04:07:17;15.00;99.90
15947;DHT22;8072;52.554;7.966;2023-06-14T04:09:46;15.10;99.90
15947;DHT22;8072;52.554;7.966;2023-06-14T04:12:12;15.10;99.90
15947;DHT22;8072;52.554;7.966;2023-06-14T04:14:41;15.10;99.90
15947;DHT22;8072;52.554;7.966;2023-06-14T04:17:07;15.10;99.90
15947;DHT22;8072;52.554;7.966;2023-06-14T04:19:33;15.10;99.90
15947;DHT22;8072;52.554;7.966;2023-06-14T04:21:59;15.10;99.90
15947;DHT22;8072;52.554;7.966;2023-06-14T04:24:27;15.10;99.90
15947;DHT22;8072;52.554;7.966;2023-06-14T04:27:00;15.10;99.90
15947;DHT22;8072;52.554;7.966;2023-06-14T04:29:29;15.10;99.90
15947;DHT22;8072;52.554;7.966;2023-06-14T04:31:55;15.00;99.90
15947;DHT22;8072;52.554;7.966;2023-06-14T04:34:26;15.10;99.90
15947;DHT22;8072;52.554;7.966;2023-06-14T04:36:55;15.10;99.90
15947;DHT22;8072;52.554;7.966;2023-06-14T04:39:22;15.10;99.90
15947;DHT22;8072;52.554;7.966;2023-06-14T04:41:49;15.10;99.90
15947;DHT22;8072;52.554;7.966;2023-06-14T04:44:18;15.20;99.90
15947;DHT22;8072;52.554;7.966;2023-06-14T04:46:45;15.30;99.90
15947;DHT22;8072;52.554;7.966;2023-06-14T04:49:15;15.30;99.90
15947;DHT22;8072;52.554;7.966;2023-06-14T04:51:45;15.40;99.90
15947;DHT22;8072;52.554;7.966;2023-06-14T04:54:11;15.40;99.90
15947;DHT22;8072;52.554;7.966;2023-06-14T04:56:43;15.50;99.90
15947;DHT22;8072;52.554;7.966;2023-06-14T04:59:09;15.60;99.90
15947;DHT22;8072;52.554;7.966;2023-06-14T05:01:37;15.60;99.90
15947;DHT22;8072;52.554;7.966;2023-06-14T05:04:03;15.60;99.90
15947;DHT22;8072;52.554;7.966;2023-06-14T05:06:29;15.70;99.90
15947;DHT22;8072;52.554;7.966;2023-06-14T05:08:56;15.80;99.90
15947;DHT22;8072;52.554;7.966;2023-06-14T05:11:23;15.80;99.90
15947;DHT22;8072;52.554;7.966;2023-06-14T05:13:52;15.90;99.90
15947;DHT22;8072;52.554;7.966;2023-06-14T05:16:18;16.00;99.90
15947;DHT22;8072;52.554;7.966;2023-06-14T05:18:45;16.00;99.90
15947;DHT22;8072;52.554;7.966;2023-06-14T05:21:13;16.10;99.90
15947;DHT22;8072;52.554;7.966;2023-06-14T05:23:40;16.10;99.90
15947;DHT22;8072;52.554;7.966;2023-06-14T05:26:05;16.20;99.90
15947;DHT22;8072;52.554;7.966;2023-06-14T05:28:32;16.30;99.90
15947;DHT22;8072;52.554;7.966;2023-06-14T05:30:57;16.40;99.90
15947;DHT22;8072;52.554;7.966;2023-06-14T05:33:23;16.40;99.90
15947;DHT22;8072;52.554;7.966;2023-06-14T05:35:49;16.40;99.90
15947;DHT22;8072;52.554;7.966;2023-06-14T05:38:15;16.50;99.90
15947;DHT22;8072;52.554;7.966;2023-06-14T05:40:41;16.60;99.90
15947;DHT22;8072;52.554;7.966;2023-06-14T05:43:07;16.60;99.90
15947;DHT22;8072;52.554;7.966;2023-06-14T05:45:33;16.70;99.90
15947;DHT22;8072;52.554;7.966;2023-06-14T05:47:59;16.80;99.90
15947;DHT22;8072;52.554;7.966;2023-06-14T05:50:25;16.80;99.90
15947;DHT22;8072;52.554;7.966;2023-06-14T05:52:51;16.90;99.90
15947;DHT22;8072;52.554;7.966;2023-06-14T05:55:17;16.90;99.90
15947;DHT22;8072;52.554;7.966;2023-06-14T05:57:43;16.90;99.90
15947;DHT22;8072;52.554;7.966;2023-06-14T06:00:09;17.00;99.90
15947;DHT22;8072;52.554;7.966;2023-06-14T06:02:55;17.00;99.90
15947;DHT22;8072;52.554;7.966;2023-06-14T06:05:24;17.10;99.90
15947;DHT22;8072;52.554;7.966;2023-06-14T06:07:50;17.20;99.90
15947;DHT22;8072;52.554;7.966;2023-06-14T06:10:16;17.30;99.90
15947;DHT22;8072;52.554;7.966;2023-06-14T06:12:42;17.30;99.90
15947;DHT22;8072;52.554;7.966;2023-06-14T06:15:08;17.40;99.90
15947;DHT22;8072;52.554;7.966;2023-06-14T06:17:37;17.50;99.90
15947;DHT22;8072;52.554;7.966;2023-06-14T06:20:04;17.50;99.90
15947;DHT22;8072;52.554;7.966;2023-06-14T06:22:31;17.60;99.90
15947;DHT22;8072;52.554;7.966;2023-06-14T06:24:57;17.60;99.90
15947;DHT22;8072;52.554;7.966;2023-06-14T06:27:23;17.70;99.90
15947;DHT22;8072;52.554;7.966;2023-06-14T06:29:48;17.80;99.90
15947;DHT22;8072;52.554;7.966;2023-06-14T06:32:15;17.90;99.90
15947;DHT22;8072;52.554;7.966;2023-06-14T06:34:41;17.90;99.90
15947;DHT22;8072;52.554;7.966;2023-06-14T06:37:06;18.00;99.90
15947;DHT22;8072;52.554;7.966;2023-06-14T06:39:33;18.00;99.90
15947;DHT22;8072;52.554;7.966;2023-06-14T06:41:58;18.10;99.90
15947;DHT22;8072;52.554;7.966;2023-06-14T06:44:24;18.20;99.90
15947;DHT22;8072;52.554;7.966;2023-06-14T06:46:50;18.10;99.90
15947;DHT22;8072;52.554;7.966;2023-06-14T06:49:16;18.20;99.90
15947;DHT22;8072;52.554;7.966;2023-06-14T06:51:42;18.20;99.90
15947;DHT22;8072;52.554;7.966;2023-06-14T06:54:11;18.20;99.90
15947;DHT22;8072;52.554;7.966;2023-06-14T06:56:37;18.30;99.90
15947;DHT22;8072;52.554;7.966;2023-06-14T06:59:05;18.30;99.90
15947;DHT22;8072;52.554;7.966;2023-06-14T07:01:31;18.40;99.90
15947;DHT22;8072;52.554;7.966;2023-06-14T07:03:59;18.60;99.90
15947;DHT22;8072;52.554;7.966;2023-06-14T07:06:25;18.60;99.90
15947;DHT22;8072;52.554;7.966;2023-06-14T07:08:53;18.60;99.90
15947;DHT22;8072;52.554;7.966;2023-06-14T07:11:19;18.60;99.90
15947;DHT22;8072;52.554;7.966;2023-06-14T07:13:45;18.60;99.90
15947;DHT22;8072;52.554;7.966;2023-06-14T07:16:11;18.60;99.90
15947;DHT22;8072;52.554;7.966;2023-06-14T07:18:37;18.70;99.90
15947;DHT22;8072;52.554;7.966;2023-06-14T07:21:03;18.70;99.90
15947;DHT22;8072;52.554;7.966;2023-06-14T07:23:29;18.80;99.90
15947;DHT22;8072;52.554;7.966;2023-06-14T07:25:54;18.70;99.90
15947;DHT22;8072;52.554;7.966;2023-06-14T07:28:20;18.80;99.90
15947;DHT22;8072;52.554;7.966;2023-06-14T07:30:46;18.90;99.90
15947;DHT22;8072;52.554;7.966;2023-06-14T07:33:13;18.90;99.90
15947;DHT22;8072;52.554;7.966;2023-06-14T07:35:39;18.90;99.90
15947;DHT22;8072;52.554;7.966;2023-06-14T07:38:05;18.90;99.90
15947;DHT22;8072;52.554;7.966;2023-06-14T07:40:31;19.00;99.90
15947;DHT22;8072;52.554;7.966;2023-06-14T07:42:57;19.00;99.90
15947;DHT22;8072;52.554;7.966;2023-06-14T07:45:23;19.10;99.90
15947;DHT22;8072;52.554;7.966;2023-06-14T07:47:49;19.10;99.90
15947;DHT22;8072;52.554;7.966;2023-06-14T07:50:15;19.30;99.90
15947;DHT22;8072;52.554;7.966;2023-06-14T07:52:41;19.30;99.90
15947;DHT22;8072;52.554;7.966;2023-06-14T07:55:07;19.40;99.90
15947;DHT22;8072;52.554;7.966;2023-06-14T07:57:33;19.50;99.90
15947;DHT22;8072;52.554;7.966;2023-06-14T07:59:58;19.50;99.90
15947;DHT22;8072;52.554;7.966;2023-06-14T08:02:24;19.60;99.90
15947;DHT22;8072;52.554;7.966;2023-06-14T08:04:50;19.70;99.90
15947;DHT22;8072;52.554;7.966;2023-06-14T08:07:16;19.70;99.90
15947;DHT22;8072;52.554;7.966;2023-06-14T08:09:41;19.80;99.90
15947;DHT22;8072;52.554;7.966;2023-06-14T08:12:07;19.80;99.90
15947;DHT22;8072;52.554;7.966;2023-06-14T08:14:35;19.80;99.90
15947;DHT22;8072;52.554;7.966;2023-06-14T08:17:01;20.00;99.90
15947;DHT22;8072;52.554;7.966;2023-06-14T08:19:27;20.00;99.90
15947;DHT22;8072;52.554;7.966;2023-06-14T08:21:53;20.10;99.90
15947;DHT22;8072;52.554;7.966;2023-06-14T08:24:23;20.20;99.90
15947;DHT22;8072;52.554;7.966;2023-06-14T08:26:55;20.30;99.90
15947;DHT22;8072;52.554;7.966;2023-06-14T08:29:22;20.30;99.90
15947;DHT22;8072;52.554;7.966;2023-06-14T08:31:48;20.30;99.90
15947;DHT22;8072;52.554;7.966;2023-06-14T08:34:14;20.40;99.90
15947;DHT22;8072;52.554;7.966;2023-06-14T08:36:39;20.50;99.90
15947;DHT22;8072;52.554;7.966;2023-06-14T08:39:05;20.50;99.90
15947;DHT22;8072;52.554;7.966;2023-06-14T08:41:32;20.60;99.90
15947;DHT22;8072;52.554;7.966;2023-06-14T08:43:58;20.70;99.90
15947;DHT22;8072;52.554;7.966;2023-06-14T08:46:25;20.70;99.90
15947;DHT22;8072;52.554;7.966;2023-06-14T08:48:55;20.70;99.90
15947;DHT22;8072;52.554;7.966;2023-06-14T08:51:22;20.70;99.90
15947;DHT22;8072;52.554;7.966;2023-06-14T08:53:54;20.70;99.90
15947;DHT22;8072;52.554;7.966;2023-06-14T08:56:30;20.80;99.90
15947;DHT22;8072;52.554;7.966;2023-06-14T08:58:57;20.80;99.90
15947;DHT22;8072;52.554;7.966;2023-06-14T09:01:26;20.80;99.90
15947;DHT22;8072;52.554;7.966;2023-06-14T09:03:52;20.90;99.90
15947;DHT22;8072;52.554;7.966;2023-06-14T09:06:21;21.00;99.90
15947;DHT22;8072;52.554;7.966;2023-06-14T09:08:49;21.00;99.90
15947;DHT22;8072;52.554;7.966;2023-06-14T09:11:17;21.10;99.90
15947;DHT22;8072;52.554;7.966;2023-06-14T09:13:46;21.20;99.90
15947;DHT22;8072;52.554;7.966;2023-06-14T09:16:12;21.30;99.90
15947;DHT22;8072;52.554;7.966;2023-06-14T09:18:43;21.30;99.90
15947;DHT22;8072;52.554;7.966;2023-06-14T09:21:10;21.30;99.90
15947;DHT22;8072;52.554;7.966;2023-06-14T09:23:44;21.40;99.90
15947;DHT22;8072;52.554;7.966;2023-06-14T09:26:18;21.40;99.90
15947;DHT22;8072;52.554;7.966;2023-06-14T09:28:49;21.50;99.90
15947;DHT22;8072;52.554;7.966;2023-06-14T09:31:17;21.50;99.90
15947;DHT22;8072;52.554;7.966;2023-06-14T09:33:48;21.60;99.90
15947;DHT22;8072;52.554;7.966;2023-06-14T09:36:23;21.70;99.90
15947;DHT22;8072;52.554;7.966;2023-06-14T09:39:01;21.80;99.90
15947;DHT22;8072;52.554;7.966;2023-06-14T09:41:42;22.00;99.90
15947;DHT22;8072;52.554;7.966;2023-06-14T09:44:20;22.10;99.90
15947;DHT22;8072;52.554;7.966;2023-06-14T09:46:48;22.10;99.90
15947;DHT22;8072;52.554;7.966;2023-06-14T09:49:14;22.20;99.90
15947;DHT22;8072;52.554;7.966;2023-06-14T09:51:43;22.30;99.90
15947;DHT22;8072;52.554;7.966;2023-06-14T09:54:15;22.30;99.90
15947;DHT22;8072;52.554;7.966;2023-06-14T09:56:44;22.40;99.90
15947;DHT22;8072;52.554;7.966;2023-06-14T09:59:13;22.50;99.90
15947;DHT22;8072;52.554;7.966;2023-06-14T10:01:43;22.50;99.90
15947;DHT22;8072;52.554;7.966;2023-06-14T10:04:10;22.50;99.90
15947;DHT22;8072;52.554;7.966;2023-06-14T10:06:40;22.50;99.90
15947;DHT22;8072;52.554;7.966;2023-06-14T10:09:11;22.60;99.90
15947;DHT22;8072;52.554;7.966;2023-06-14T10:11:38;22.70;99.90
15947;DHT22;8072;52.554;7.966;2023-06-14T10:14:10;22.90;99.90
15947;DHT22;8072;52.554;7.966;2023-06-14T10:16:42;23.10;99.90
15947;DHT22;8072;52.554;7.966;2023-06-14T10:22:07;23.10;99.90
15947;DHT22;8072;52.554;7.966;2023-06-14T10:24:42;23.20;99.90
15947;DHT22;8072;52.554;7.966;2023-06-14T10:27:08;23.20;99.90
15947;DHT22;8072;52.554;7.966;2023-06-14T10:30:03;23.30;99.90
15947;DHT22;8072;52.554;7.966;2023-06-14T10:32:30;23.50;99.90
15947;DHT22;8072;52.554;7.966;2023-06-14T10:34:59;23.60;99.90
15947;DHT22;8072;52.554;7.966;2023-06-14T10:37:25;23.50;99.90
15947;DHT22;8072;52.554;7.966;2023-06-14T10:39:52;23.60;99.90
15947;DHT22;8072;52.554;7.966;2023-06-14T10:42:19;23.70;99.90
15947;DHT22;8072;52.554;7.966;2023-06-14T10:44:55;23.90;99.90
15947;DHT22;8072;52.554;7.966;2023-06-14T10:49:56;24.00;99.90
15947;DHT22;8072;52.554;7.966;2023-06-14T10:52:25;24.10;99.90
15947;DHT22;8072;52.554;7.966;2023-06-14T10:55:17;24.40;99.90
15947;DHT22;8072;52.554;7.966;2023-06-14T10:57:45;24.60;99.90
15947;DHT22;8072;52.554;7.966;2023-06-14T11:00:12;24.50;99.90
15947;DHT22;8072;52.554;7.966;2023-06-14T11:08:40;24.90;99.90
15947;DHT22;8072;52.554;7.966;2023-06-14T11:11:13;25.00;99.90
15947;DHT22;8072;52.554;7.966;2023-06-14T11:13:41;25.20;99.90
15947;DHT22;8072;52.554;7.966;2023-06-14T11:16:12;25.30;99.90
15947;DHT22;8072;52.554;7.966;2023-06-14T11:18:38;25.40;99.90
15947;DHT22;8072;52.554;7.966;2023-06-14T11:21:04;25.50;99.90
15947;DHT22;8072;52.554;7.966;2023-06-14T11:23:30;25.50;99.90
15947;DHT22;8072;52.554;7.966;2023-06-14T11:25:55;25.70;99.90
15947;DHT22;8072;52.554;7.966;2023-06-14T11:28:21;25.60;99.90
15947;DHT22;8072;52.554;7.966;2023-06-14T11:30:59;25.60;99.90
15947;DHT22;8072;52.554;7.966;2023-06-14T11:33:25;25.50;99.90
15947;DHT22;8072;52.554;7.966;2023-06-14T11:35:51;25.70;99.90
15947;DHT22;8072;52.554;7.966;2023-06-14T11:38:17;25.80;99.90
15947;DHT22;8072;52.554;7.966;2023-06-14T11:40:43;26.00;99.90
15947;DHT22;8072;52.554;7.966;2023-06-14T11:43:09;26.10;99.90
15947;DHT22;8072;52.554;7.966;2023-06-14T11:45:35;26.20;99.90
15947;DHT22;8072;52.554;7.966;2023-06-14T11:48:01;26.30;99.90
15947;DHT22;8072;52.554;7.966;2023-06-14T11:50:27;26.20;99.90
15947;DHT22;8072;52.554;7.966;2023-06-14T11:52:57;26.30;99.90
15947;DHT22;8072;52.554;7.966;2023-06-14T11:55:25;26.30;99.90
15947;DHT22;8072;52.554;7.966;2023-06-14T11:57:53;26.20;99.90
15947;DHT22;8072;52.554;7.966;2023-06-14T12:00:24;26.10;99.90
15947;DHT22;8072;52.554;7.966;2023-06-14T12:02:55;26.30;99.90
15947;DHT22;8072;52.554;7.966;2023-06-14T12:05:25;26.10;99.90
15947;DHT22;8072;52.554;7.966;2023-06-14T12:07:58;26.20;99.90
15947;DHT22;8072;52.554;7.966;2023-06-14T12:10:25;26.30;99.90
15947;DHT22;8072;52.554;7.966;2023-06-14T12:12:57;26.30;99.90
15947;DHT22;8072;52.554;7.966;2023-06-14T12:15:23;26.30;99.90
15947;DHT22;8072;52.554;7.966;2023-06-14T12:17:49;26.30;99.90
15947;DHT22;8072;52.554;7.966;2023-06-14T12:20:16;26.30;99.90
15947;DHT22;8072;52.554;7.966;2023-06-14T12:22:52;26.30;99.90
15947;DHT22;8072;52.554;7.966;2023-06-14T12:27:57;26.30;99.90
15947;DHT22;8072;52.554;7.966;2023-06-14T12:30:23;26.40;99.90
15947;DHT22;8072;52.554;7.966;2023-06-14T12:32:49;26.60;99.90
15947;DHT22;8072;52.554;7.966;2023-06-14T12:35:17;26.70;99.90
15947;DHT22;8072;52.554;7.966;2023-06-14T12:37:45;26.60;99.90
15947;DHT22;8072;52.554;7.966;2023-06-14T12:40:12;26.60;99.90
15947;DHT22;8072;52.554;7.966;2023-06-14T12:42:40;26.60;99.90
15947;DHT22;8072;52.554;7.966;2023-06-14T12:45:06;26.70;99.90
15947;DHT22;8072;52.554;7.966;2023-06-14T12:47:32;26.70;99.90
15947;DHT22;8072;52.554;7.966;2023-06-14T12:49:57;26.60;99.90
15947;DHT22;8072;52.554;7.966;2023-06-14T12:52:24;26.60;99.90
15947;DHT22;8072;52.554;7.966;2023-06-14T12:54:50;26.60;99.90
15947;DHT22;8072;52.554;7.966;2023-06-14T12:57:15;26.50;99.90
15947;DHT22;8072;52.554;7.966;2023-06-14T12:59:42;26.60;99.90
15947;DHT22;8072;52.554;7.966;2023-06-14T13:02:15;26.60;99.90
15947;DHT22;8072;52.554;7.966;2023-06-14T13:04:41;26.70;99.90
15947;DHT22;8072;52.554;7.966;2023-06-14T13:07:07;26.80;99.90
15947;DHT22;8072;52.554;7.966;2023-06-14T13:09:33;26.80;99.90
15947;DHT22;8072;52.554;7.966;2023-06-14T13:11:59;26.50;99.90
15947;DHT22;8072;52.554;7.966;2023-06-14T13:14:25;26.10;99.90
15947;DHT22;8072;52.554;7.966;2023-06-14T13:16:51;25.90;99.90
15947;DHT22;8072;52.554;7.966;2023-06-14T13:19:17;25.70;99.90
15947;DHT22;8072;52.554;7.966;2023-06-14T13:21:43;25.80;99.90
15947;DHT22;8072;52.554;7.966;2023-06-14T13:24:10;26.00;99.90
15947;DHT22;8072;52.554;7.966;2023-06-14T13:26:36;26.10;99.90
15947;DHT22;8072;52.554;7.966;2023-06-14T13:29:01;26.30;99.90
15947;DHT22;8072;52.554;7.966;2023-06-14T13:31:27;26.50;99.90
15947;DHT22;8072;52.554;7.966;2023-06-14T13:33:55;26.60;99.90
15947;DHT22;8072;52.554;7.966;2023-06-14T13:36:21;26.70;99.90
15947;DHT22;8072;52.554;7.966;2023-06-14T13:38:47;26.80;99.90
15947;DHT22;8072;52.554;7.966;2023-06-14T13:41:13;27.00;99.90
15947;DHT22;8072;52.554;7.966;2023-06-14T13:43:39;27.00;99.90
15947;DHT22;8072;52.554;7.966;2023-06-14T13:46:06;26.80;99.90
15947;DHT22;8072;52.554;7.966;2023-06-14T13:48:31;26.50;99.90
15947;DHT22;8072;52.554;7.966;2023-06-14T13:51:00;26.30;99.90
15947;DHT22;8072;52.554;7.966;2023-06-14T13:53:26;26.20;99.90
15947;DHT22;8072;52.554;7.966;2023-06-14T13:55:52;26.10;99.90
15947;DHT22;8072;52.554;7.966;2023-06-14T13:58:19;25.90;99.90
15947;DHT22;8072;52.554;7.966;2023-06-14T14:00:44;26.00;99.90
15947;DHT22;8072;52.554;7.966;2023-06-14T14:03:10;26.10;99.90
15947;DHT22;8072;52.554;7.966;2023-06-14T14:05:37;26.30;99.90
15947;DHT22;8072;52.554;7.966;2023-06-14T14:08:03;26.50;99.90
15947;DHT22;8072;52.554;7.966;2023-06-14T14:10:29;26.60;99.90
15947;DHT22;8072;52.554;7.966;2023-06-14T14:12:55;26.60;99.90
15947;DHT22;8072;52.554;7.966;2023-06-14T14:15:22;26.60;99.90
15947;DHT22;8072;52.554;7.966;2023-06-14T14:17:48;26.60;99.90
15947;DHT22;8072;52.554;7.966;2023-06-14T14:20:13;26.70;99.90
15947;DHT22;8072;52.554;7.966;2023-06-14T14:22:44;26.50;99.90
15947;DHT22;8072;52.554;7.966;2023-06-14T14:25:10;26.40;99.90
15947;DHT22;8072;52.554;7.966;2023-06-14T14:27:38;26.30;99.90
15947;DHT22;8072;52.554;7.966;2023-06-14T14:30:05;26.40;99.90
15947;DHT22;8072;52.554;7.966;2023-06-14T14:32:31;26.50;99.90
15947;DHT22;8072;52.554;7.966;2023-06-14T14:34:57;26.60;99.90
15947;DHT22;8072;52.554;7.966;2023-06-14T14:37:22;26.60;99.90
15947;DHT22;8072;52.554;7.966;2023-06-14T14:39:48;26.70;99.90
15947;DHT22;8072;52.554;7.966;2023-06-14T14:42:14;26.70;99.90
15947;DHT22;8072;52.554;7.966;2023-06-14T14:44:40;26.80;99.90
15947;DHT22;8072;52.554;7.966;2023-06-14T14:47:06;26.80;99.90
15947;DHT22;8072;52.554;7.966;2023-06-14T14:49:32;26.80;99.90
15947;DHT22;8072;52.554;7.966;2023-06-14T14:51:58;26.90;99.90
15947;DHT22;8072;52.554;7.966;2023-06-14T14:54:23;26.90;99.90
15947;DHT22;8072;52.554;7.966;2023-06-14T14:56:51;26.90;99.90
15947;DHT22;8072;52.554;7.966;2023-06-14T14:59:17;26.80;99.90
15947;DHT22;8072;52.554;7.966;2023-06-14T15:01:44;26.80;99.90
15947;DHT22;8072;52.554;7.966;2023-06-14T15:04:11;26.70;99.90
15947;DHT22;8072;52.554;7.966;2023-06-14T15:06:37;26.60;99.90
15947;DHT22;8072;52.554;7.966;2023-06-14T15:09:05;26.50;99.90
15947;DHT22;8072;52.554;7.966;2023-06-14T15:11:31;26.50;99.90
15947;DHT22;8072;52.554;7.966;2023-06-14T15:13:57;26.60;99.90
15947;DHT22;8072;52.554;7.966;2023-06-14T15:16:23;26.60;99.90
15947;DHT22;8072;52.554;7.966;2023-06-14T15:18:48;26.60;99.90
15947;DHT22;8072;52.554;7.966;2023-06-14T15:21:14;26.60;99.90
15947;DHT22;8072;52.554;7.966;2023-06-14T15:23:40;26.70;99.90
15947;DHT22;8072;52.554;7.966;2023-06-14T15:26:06;26.80;99.90
15947;DHT22;8072;52.554;7.966;2023-06-14T15:28:32;26.60;99.90
15947;DHT22;8072;52.554;7.966;2023-06-14T15:30:59;26.60;99.90
15947;DHT22;8072;52.554;7.966;2023-06-14T15:33:25;26.40;99.90
15947;DHT22;8072;52.554;7.966;2023-06-14T15:35:51;26.50;99.90
15947;DHT22;8072;52.554;7.966;2023-06-14T15:38:17;26.50;99.90
15947;DHT22;8072;52.554;7.966;2023-06-14T15:40:43;26.60;99.90
15947;DHT22;8072;52.554;7.966;2023-06-14T15:43:08;26.70;99.90
15947;DHT22;8072;52.554;7.966;2023-06-14T15:45:34;26.60;99.90
15947;DHT22;8072;52.554;7.966;2023-06-14T15:48:00;26.60;99.90
15947;DHT22;8072;52.554;7.966;2023-06-14T15:50:26;26.40;99.90
15947;DHT22;8072;52.554;7.966;2023-06-14T15:52:52;26.20;99.90
15947;DHT22;8072;52.554;7.966;2023-06-14T15:55:18;26.20;99.90
15947;DHT22;8072;52.554;7.966;2023-06-14T15:57:44;26.10;99.90
15947;DHT22;8072;52.554;7.966;2023-06-14T16:00:10;26.10;99.90
15947;DHT22;8072;52.554;7.966;2023-06-14T16:02:40;26.10;99.90
15947;DHT22;8072;52.554;7.966;2023-06-14T16:05:06;26.10;99.90
15947;DHT22;8072;52.554;7.966;2023-06-14T16:07:32;26.10;99.90
15947;DHT22;8072;52.554;7.966;2023-06-14T16:09:58;26.10;99.90